This is the latest recevied weather packets stored in our database for station/object KA4YMY. If no packets are shown the sender has not sent any weather packets the latest 10 day(s).
| Time | Temp. | Humidity | Pressure | Rain* | Wind** | Luminosity | Snow |
|---|---|---|---|---|---|---|---|
| 1777749316 | 15.56° C | 42% | 1012.2 hPa | 0 mm | - | - | - |
| 1777748716 | 15.56° C | 43% | 1012.2 hPa | 0 mm | - | - | - |
| 1777748116 | 15.56° C | 43% | 1012.2 hPa | 0 mm | - | - | - |
| 1777747516 | 16.11° C | 44% | 1012.2 hPa | 0 mm | - | - | - |
| 1777746916 | 15.56° C | 44% | 1012.3 hPa | 0 mm | - | - | - |
| 1777746316 | 15.56° C | 47% | 1012.3 hPa | 0 mm | - | - | - |
| 1777745716 | 15° C | 48% | 1012.3 hPa | 0 mm | - | - | - |
| 1777745116 | 14.44° C | 49% | 1012.2 hPa | 0 mm | - | - | - |
| 1777744516 | 14.44° C | 50% | 1012.4 hPa | 0 mm | - | - | - |
| 1777743916 | 15° C | 48% | 1012.7 hPa | 0 mm | - | - | - |
| 1777743316 | 15° C | 47% | 1012.5 hPa | 0 mm | - | - | - |
| 1777742716 | 15° C | 49% | 1012.6 hPa | 0 mm | - | - | - |
| 1777742116 | 15° C | 54% | 1012.5 hPa | 0 mm | - | - | - |
| 1777741516 | 15° C | 52% | 1012.6 hPa | 0 mm | - | - | - |
| 1777740916 | 15° C | 54% | 1012.6 hPa | 0 mm | - | - | - |
| 1777740316 | 15° C | 53% | 1012.8 hPa | 0 mm | - | - | - |
| 1777739716 | 14.44° C | 52% | 1013.1 hPa | 0 mm | - | - | - |
| 1777739116 | 14.44° C | 57% | 1013.1 hPa | 0 mm | - | - | - |
| 1777738516 | 14.44° C | 60% | 1013.1 hPa | 0 mm | - | - | - |
| 1777737916 | 13.89° C | 62% | 1013.2 hPa | 0 mm | - | - | - |
| 1777737316 | 13.89° C | 61% | 1013.5 hPa | 0 mm | - | - | - |
| 1777736716 | 13.89° C | 62% | 1013.4 hPa | 0 mm | - | - | - |
| 1777736116 | 13.89° C | 66% | 1013.3 hPa | 0 mm | - | - | - |
| 1777735516 | 13.89° C | 69% | 1013.1 hPa | 0 mm | - | - | - |
| 1777734916 | 13.33° C | 70% | 1013.3 hPa | 0 mm | - | - | - |
* Rain latest hour (hover to see other rain measurements)
** Current wind speed in m/s (hover to see current wind gust speed)